Weather at Witi Tv Studio Building Heliport

Public forecast

Using degrees Fahrenheit for public forecast. Weather courtesy of forecast.io.

Closest aviation weather report (METAR) to Witi Tv Studio Building Heliport

Closest report is Lawrence J Timmerman Airport, 5.3 nm (9.7 km) SW. Retrieved 2022/01/22 20:45 UTC (36 minutes ago):

KMWC 222045Z 27015G23KT 10SM CLR M03/M14 A3004

Closest aviation forecast (TAF) to Witi Tv Studio Building Heliport

Closest forecast is General Mitchell International Airport, 14.3 nm (26.6 km) SSE. Retrieved 2022/01/22 18:22 UTC (3 hours ago):

TAF KMKE 221720Z 2218/2324 27013G24KT P6SM BKN025 FM222100 28012G23KT P6SM SCT090 FM230200 29007KT P6SM OVC050 FM230500 31006KT 3SM -SN SCT020 OVC035 FM230800 35008KT 1 1/2SM -SN SCT010 OVC020 FM231100 36010KT P6SM BKN030 FM231200 34010KT P6SM SKC